Time;durP1;ratioP1;P1;durP2;ratioP2;P2;SDS_P1;SDS_P2;PMS_P1;PMS_P2;Temp;Humidity;BMP_temperature;BMP_pressure;BME280_temperature;BME280_humidity;BME280_pressure;Samples;Min_cycle;Max_cycle;Signal;HPM_P1;HPM_P2
2020/12/02 00:01:16;;;;;;;56.97;27.63;;;;;;;;;;5046538;28;20177;-72
2020/12/02 00:03:49;;;;;;;59.80;27.57;;;;;;;;;;5037313;28;20193;-71
2020/12/02 00:06:14;;;;;;;60.03;26.73;;;;;;;;;;5041048;28;20248;-72
2020/12/02 00:08:57;;;;;;;58.37;26.10;;;;;;;;;;5037068;28;20244;-72
2020/12/02 00:11:24;;;;;;;59.70;26.03;;;;;;;;;;5047584;28;20699;-73
2020/12/02 00:13:50;;;;;;;56.40;26.53;;;;;;;;;;5036468;28;20305;-72
2020/12/02 00:16:22;;;;;;;57.57;25.07;;;;;;;;;;5048087;28;20272;-72
2020/12/02 00:18:50;;;;;;;61.47;27.00;;;;;;;;;;5038294;28;20657;-72
2020/12/02 00:21:16;;;;;;;62.50;26.30;;;;;;;;;;5048339;28;20186;-72
2020/12/02 00:23:41;;;;;;;66.47;28.20;;;;;;;;;;5035889;28;20252;-72
2020/12/02 00:26:07;;;;;;;70.37;29.23;;;;;;;;;;5043954;28;20193;-72
2020/12/02 00:28:33;;;;;;;68.07;27.77;;;;;;;;;;5046877;28;20702;-72
2020/12/02 00:30:59;;;;;;;74.33;29.37;;;;;;;;;;5047848;28;20247;-72
2020/12/02 00:33:26;;;;;;;74.33;28.40;;;;;;;;;;5050431;28;20221;-72
2020/12/02 00:35:52;;;;;;;74.53;29.50;;;;;;;;;;5044261;28;20229;-72
2020/12/02 00:38:19;;;;;;;73.83;28.50;;;;;;;;;;5050531;28;20185;-72
2020/12/02 00:40:45;;;;;;;78.27;29.63;;;;;;;;;;5040956;28;20242;-72
2020/12/02 00:43:15;;;;;;;80.07;28.83;;;;;;;;;;5050730;28;20647;-72
2020/12/02 00:45:41;;;;;;;74.90;29.83;;;;;;;;;;5041054;28;20200;-72
2020/12/02 00:48:15;;;;;;;72.80;30.07;;;;;;;;;;5050679;28;20316;-73
2020/12/02 00:50:40;;;;;;;74.27;28.33;;;;;;;;;;5042655;28;20683;-73
2020/12/02 00:53:11;;;;;;;76.00;29.70;;;;;;;;;;5047420;28;20202;-71
2020/12/02 00:55:39;;;;;;;79.57;29.13;;;;;;;;;;5043611;28;20205;-71
2020/12/02 00:58:09;;;;;;;74.37;28.27;;;;;;;;;;5050795;28;20193;-71
2020/12/02 01:00:37;;;;;;;89.67;30.07;;;;;;;;;;5041169;28;20554;-70
2020/12/02 01:03:13;;;;;;;78.40;30.10;;;;;;;;;;5049696;28;20672;-71
2020/12/02 01:05:39;;;;;;;93.27;30.90;;;;;;;;;;5043155;28;20203;-70
2020/12/02 01:08:24;;;;;;;82.83;30.10;;;;;;;;;;5050667;28;20209;-71
2020/12/02 01:10:57;;;;;;;78.03;28.60;;;;;;;;;;5047542;28;20191;-72
2020/12/02 01:13:22;;;;;;;93.07;30.77;;;;;;;;;;5049650;28;20235;-72
2020/12/02 01:15:48;;;;;;;90.33;30.83;;;;;;;;;;5051020;28;20605;-72
2020/12/02 01:18:22;;;;;;;96.87;30.40;;;;;;;;;;5038610;28;20274;-72
2020/12/02 01:21:14;;;;;;;87.77;31.37;;;;;;;;;;5049300;28;20188;-72
2020/12/02 01:23:42;;;;;;;87.37;29.83;;;;;;;;;;5042147;28;20200;-72
2020/12/02 01:26:08;;;;;;;88.10;31.53;;;;;;;;;;5048223;28;20371;-70
2020/12/02 01:28:36;;;;;;;92.77;30.67;;;;;;;;;;5042462;28;20185;-70
2020/12/02 01:31:02;;;;;;;83.17;28.37;;;;;;;;;;5046730;28;20200;-70
2020/12/02 01:33:27;;;;;;;77.23;27.57;;;;;;;;;;5040892;28;20225;-70
2020/12/02 01:35:53;;;;;;;90.83;29.03;;;;;;;;;;5050744;28;20218;-70
2020/12/02 01:38:37;;;;;;;93.67;28.17;;;;;;;;;;5041332;28;20656;-71
2020/12/02 01:41:03;;;;;;;105.07;29.37;;;;;;;;;;5049146;28;20215;-70
2020/12/02 01:43:28;;;;;;;99.37;29.87;;;;;;;;;;5042305;28;20801;-70
2020/12/02 01:45:59;;;;;;;98.43;29.53;;;;;;;;;;5044442;28;20178;-70
2020/12/02 01:49:01;;;;;;;111.87;29.80;;;;;;;;;;5038749;28;20185;-70
2020/12/02 01:51:49;;;;;;;90.73;29.20;;;;;;;;;;5048740;28;20609;-70
2020/12/02 01:54:20;;;;;;;106.30;29.13;;;;;;;;;;5040992;28;20372;-70
2020/12/02 01:57:13;;;;;;;114.73;29.60;;;;;;;;;;5047745;28;20618;-70
2020/12/02 02:00:03;;;;;;;110.40;30.57;;;;;;;;;;5038762;28;20189;-72
2020/12/02 02:02:45;;;;;;;114.77;31.83;;;;;;;;;;5049454;28;20196;-71
2020/12/02 02:05:16;;;;;;;118.67;32.27;;;;;;;;;;5040510;28;20185;-70
2020/12/02 02:07:42;;;;;;;116.53;31.87;;;;;;;;;;5039070;28;20308;-70
2020/12/02 02:10:14;;;;;;;120.70;31.70;;;;;;;;;;5040274;28;20646;-70
2020/12/02 02:12:55;;;;;;;137.30;32.73;;;;;;;;;;5052406;28;20231;-70
2020/12/02 02:15:29;;;;;;;126.50;32.70;;;;;;;;;;5040011;28;20213;-70
2020/12/02 02:17:56;;;;;;;120.53;32.60;;;;;;;;;;5052365;28;20188;-70
2020/12/02 02:20:26;;;;;;;132.73;34.07;;;;;;;;;;5039252;28;20602;-70
2020/12/02 02:22:52;;;;;;;159.57;34.57;;;;;;;;;;5051538;28;20268;-70
2020/12/02 02:25:17;;;;;;;129.67;33.53;;;;;;;;;;5038700;28;20276;-70
2020/12/02 02:27:43;;;;;;;129.83;33.37;;;;;;;;;;5050189;28;20193;-70
2020/12/02 02:30:09;;;;;;;123.83;33.17;;;;;;;;;;5038570;28;20665;-70
2020/12/02 02:32:35;;;;;;;135.07;34.13;;;;;;;;;;5049703;28;20221;-70
2020/12/02 02:35:01;;;;;;;116.73;32.13;;;;;;;;;;5046462;28;20206;-70
2020/12/02 02:37:29;;;;;;;122.13;33.67;;;;;;;;;;5040846;28;20602;-70
2020/12/02 02:39:55;;;;;;;161.40;33.87;;;;;;;;;;5048615;28;20268;-70
2020/12/02 02:42:29;;;;;;;130.50;32.60;;;;;;;;;;5041421;28;20185;-70
2020/12/02 02:44:55;;;;;;;99.43;30.20;;;;;;;;;;5047393;28;20177;-70
2020/12/02 02:47:21;;;;;;;117.40;32.23;;;;;;;;;;5036915;28;20561;-70
2020/12/02 02:49:46;;;;;;;88.03;27.83;;;;;;;;;;5050042;28;20185;-71
2020/12/02 02:52:11;;;;;;;55.17;20.87;;;;;;;;;;5042877;28;20181;-70
2020/12/02 02:54:37;;;;;;;51.07;20.27;;;;;;;;;;5048015;28;20213;-70
2020/12/02 02:57:02;;;;;;;51.17;20.40;;;;;;;;;;5039249;28;20199;-70
2020/12/02 02:59:28;;;;;;;46.47;19.10;;;;;;;;;;5048451;28;20697;-71
2020/12/02 03:01:53;;;;;;;48.67;17.87;;;;;;;;;;5039566;28;25756;-70
2020/12/02 03:04:19;;;;;;;46.00;18.70;;;;;;;;;;5045622;28;20640;-70
2020/12/02 03:06:44;;;;;;;43.43;17.53;;;;;;;;;;5042127;28;20637;-70
2020/12/02 03:09:11;;;;;;;35.43;16.30;;;;;;;;;;5046421;28;20181;-70
2020/12/02 03:11:37;;;;;;;34.40;15.93;;;;;;;;;;5046372;28;20588;-70
2020/12/02 03:14:03;;;;;;;36.27;15.80;;;;;;;;;;5037931;28;20528;-70
2020/12/02 03:16:34;;;;;;;30.73;14.87;;;;;;;;;;5049864;28;20188;-70
2020/12/02 03:19:07;;;;;;;37.83;15.87;;;;;;;;;;5021140;28;20185;-70
2020/12/02 03:21:32;;;;;;;36.77;16.30;;;;;;;;;;5047674;28;20189;-70
2020/12/02 03:23:57;;;;;;;36.47;16.17;;;;;;;;;;5037173;28;20181;-70
2020/12/02 03:26:23;;;;;;;34.03;16.43;;;;;;;;;;5047186;28;20197;-70
2020/12/02 03:28:48;;;;;;;33.13;15.93;;;;;;;;;;5039154;28;20197;-70
2020/12/02 03:31:17;;;;;;;37.07;17.77;;;;;;;;;;5045987;28;20251;-70
2020/12/02 03:33:43;;;;;;;35.90;16.40;;;;;;;;;;5038262;28;20244;-71
2020/12/02 03:36:13;;;;;;;35.20;16.37;;;;;;;;;;5048937;28;20209;-70
2020/12/02 03:38:39;;;;;;;35.80;15.50;;;;;;;;;;5038130;28;20228;-71
2020/12/02 03:41:05;;;;;;;28.10;14.03;;;;;;;;;;5046351;28;20275;-70
2020/12/02 03:43:30;;;;;;;27.47;14.47;;;;;;;;;;5038732;28;20186;-71
2020/12/02 03:45:55;;;;;;;26.33;14.43;;;;;;;;;;5041341;28;20197;-70
2020/12/02 03:48:21;;;;;;;29.30;14.90;;;;;;;;;;5046822;28;20648;-70
2020/12/02 03:50:46;;;;;;;31.90;14.77;;;;;;;;;;5037419;28;20532;-70
2020/12/02 03:53:13;;;;;;;33.10;15.27;;;;;;;;;;5048263;28;20755;-71
2020/12/02 03:55:38;;;;;;;28.13;14.47;;;;;;;;;;5038581;28;20217;-71
2020/12/02 03:58:04;;;;;;;32.53;16.13;;;;;;;;;;5047574;28;20697;-70
2020/12/02 04:00:30;;;;;;;28.07;14.60;;;;;;;;;;5038920;28;20189;-71
2020/12/02 04:02:56;;;;;;;29.60;14.23;;;;;;;;;;5050813;28;20235;-70
2020/12/02 04:05:22;;;;;;;34.47;15.43;;;;;;;;;;5044160;28;20734;-71
2020/12/02 04:07:47;;;;;;;27.53;14.87;;;;;;;;;;5054384;28;20204;-71
2020/12/02 04:10:13;;;;;;;28.67;15.10;;;;;;;;;;5041886;28;20201;-71
2020/12/02 04:12:38;;;;;;;30.23;15.57;;;;;;;;;;5048140;28;20596;-70
2020/12/02 04:15:05;;;;;;;32.80;14.23;;;;;;;;;;5042546;28;20263;-71
2020/12/02 04:17:30;;;;;;;31.90;15.17;;;;;;;;;;5047998;28;20206;-70
2020/12/02 04:19:56;;;;;;;29.63;15.47;;;;;;;;;;5049845;28;20223;-71
2020/12/02 04:22:21;;;;;;;32.67;15.83;;;;;;;;;;5041696;28;20308;-70
2020/12/02 04:24:46;;;;;;;28.03;13.70;;;;;;;;;;5052121;28;20208;-70
2020/12/02 04:27:12;;;;;;;34.73;15.40;;;;;;;;;;5043259;28;20288;-70
2020/12/02 04:29:37;;;;;;;32.57;15.47;;;;;;;;;;5049919;28;20185;-70
2020/12/02 04:32:05;;;;;;;44.87;17.63;;;;;;;;;;5043391;28;20201;-70
2020/12/02 04:34:30;;;;;;;39.07;15.43;;;;;;;;;;5050670;28;20303;-71
2020/12/02 04:36:55;;;;;;;34.13;16.60;;;;;;;;;;5044215;28;20192;-71
2020/12/02 04:39:21;;;;;;;38.93;16.63;;;;;;;;;;5053531;28;20539;-70
2020/12/02 04:41:46;;;;;;;34.37;15.80;;;;;;;;;;5038077;28;20201;-70
2020/12/02 04:44:12;;;;;;;40.13;17.30;;;;;;;;;;5050422;28;20190;-70
2020/12/02 04:46:38;;;;;;;37.40;17.27;;;;;;;;;;5042234;28;20677;-70
2020/12/02 04:49:33;;;;;;;38.10;17.97;;;;;;;;;;5048801;28;20281;-70
2020/12/02 04:52:14;;;;;;;38.50;17.17;;;;;;;;;;5032950;28;20197;-71
2020/12/02 04:54:41;;;;;;;34.73;16.77;;;;;;;;;;5048334;28;20204;-70
2020/12/02 04:57:08;;;;;;;39.70;17.30;;;;;;;;;;5047070;28;20198;-70
2020/12/02 04:59:39;;;;;;;46.73;18.93;;;;;;;;;;5045937;28;20185;-70
2020/12/02 05:02:05;;;;;;;43.37;18.30;;;;;;;;;;5066023;28;20205;-70
2020/12/02 05:04:30;;;;;;;43.67;17.83;;;;;;;;;;5044306;28;20192;-70
2020/12/02 05:07:04;;;;;;;41.43;17.70;;;;;;;;;;5044259;28;20225;-71
2020/12/02 05:09:32;;;;;;;41.33;18.30;;;;;;;;;;5044257;28;20189;-71
2020/12/02 05:12:02;;;;;;;43.30;18.07;;;;;;;;;;5049754;28;20567;-71
2020/12/02 05:14:37;;;;;;;43.30;18.03;;;;;;;;;;5039903;28;20221;-71
2020/12/02 05:17:14;;;;;;;41.73;17.90;;;;;;;;;;5050325;28;20188;-71
2020/12/02 05:19:39;;;;;;;48.93;18.90;;;;;;;;;;5040113;28;20192;-71
2020/12/02 05:22:11;;;;;;;49.53;19.47;;;;;;;;;;5053911;28;20669;-71
2020/12/02 05:24:48;;;;;;;46.40;18.87;;;;;;;;;;5042357;28;20645;-70
2020/12/02 05:27:21;;;;;;;45.33;18.13;;;;;;;;;;5050949;28;20242;-71
2020/12/02 05:29:55;;;;;;;42.80;18.73;;;;;;;;;;5041514;28;20195;-71
2020/12/02 05:32:27;;;;;;;39.77;17.93;;;;;;;;;;5050723;28;20749;-70
2020/12/02 05:34:54;;;;;;;42.23;18.57;;;;;;;;;;5038676;28;20531;-71
2020/12/02 05:37:42;;;;;;;40.57;18.83;;;;;;;;;;5047901;28;20219;-71
2020/12/02 05:40:14;;;;;;;43.33;17.97;;;;;;;;;;5040367;28;20283;-71
2020/12/02 05:42:47;;;;;;;41.40;18.17;;;;;;;;;;5046639;28;20185;-71
2020/12/02 05:45:37;;;;;;;44.80;18.27;;;;;;;;;;5039172;28;20571;-71
2020/12/02 05:48:06;;;;;;;43.67;18.37;;;;;;;;;;5049050;28;20243;-71
2020/12/02 05:50:32;;;;;;;44.40;18.97;;;;;;;;;;5049343;28;20196;-71
2020/12/02 05:53:12;;;;;;;46.73;18.67;;;;;;;;;;5049910;28;20181;-71
2020/12/02 05:55:37;;;;;;;41.80;18.67;;;;;;;;;;5054530;28;20572;-71
2020/12/02 05:58:12;;;;;;;46.67;19.70;;;;;;;;;;5049143;28;20189;-71
2020/12/02 06:00:37;;;;;;;44.80;18.97;;;;;;;;;;5041814;28;20746;-71
2020/12/02 06:03:04;;;;;;;42.00;18.43;;;;;;;;;;5048406;28;20181;-71
2020/12/02 06:05:30;;;;;;;43.13;17.90;;;;;;;;;;5039754;28;20181;-71
2020/12/02 06:08:00;;;;;;;49.33;18.80;;;;;;;;;;5050575;28;20212;-71
2020/12/02 06:10:44;;;;;;;41.17;18.00;;;;;;;;;;5049326;28;20258;-71
2020/12/02 06:13:38;;;;;;;44.10;19.00;;;;;;;;;;4345194;28;10000681;-71
2020/12/02 06:16:03;;;;;;;45.63;18.60;;;;;;;;;;5036865;28;20198;-71
2020/12/02 06:18:33;;;;;;;39.30;17.27;;;;;;;;;;5046178;28;20189;-71
2020/12/02 06:20:59;;;;;;;43.60;18.20;;;;;;;;;;5041506;28;20198;-71
2020/12/02 06:23:39;;;;;;;45.10;19.27;;;;;;;;;;5035977;28;20223;-71
2020/12/02 06:26:04;;;;;;;43.63;18.07;;;;;;;;;;5040525;28;20247;-71
2020/12/02 06:28:30;;;;;;;45.83;19.07;;;;;;;;;;5036664;28;20197;-71
2020/12/02 06:31:01;;;;;;;44.50;18.07;;;;;;;;;;5043705;28;20187;-71
2020/12/02 06:33:33;;;;;;;39.40;17.53;;;;;;;;;;5036209;28;20244;-71
2020/12/02 06:36:23;;;;;;;46.63;19.10;;;;;;;;;;5046841;28;20201;-71
2020/12/02 06:38:54;;;;;;;40.20;19.10;;;;;;;;;;5038029;28;20330;-71
2020/12/02 06:41:19;;;;;;;45.77;19.40;;;;;;;;;;5046709;28;20193;-72
2020/12/02 06:43:53;;;;;;;43.27;18.80;;;;;;;;;;5038844;28;20548;-71
2020/12/02 06:46:42;;;;;;;45.27;20.07;;;;;;;;;;5047963;28;20245;-71
2020/12/02 06:49:09;;;;;;;47.33;19.73;;;;;;;;;;5042672;28;20189;-71
2020/12/02 06:51:34;;;;;;;47.13;20.10;;;;;;;;;;5046400;28;20284;-72
2020/12/02 06:54:00;;;;;;;52.42;20.02;;;;;;;;;;4706208;28;10000730;-72
2020/12/02 06:56:26;;;;;;;49.50;20.60;;;;;;;;;;5038713;28;20213;-72
2020/12/02 06:59:05;;;;;;;54.53;20.80;;;;;;;;;;5035716;28;20190;-72
2020/12/02 07:01:34;;;;;;;51.27;21.03;;;;;;;;;;5043356;28;20185;-72
2020/12/02 07:04:14;;;;;;;55.67;22.33;;;;;;;;;;5035196;28;20671;-72
2020/12/02 07:06:40;;;;;;;49.70;21.30;;;;;;;;;;5044160;28;20181;-72
2020/12/02 07:09:14;;;;;;;55.90;20.90;;;;;;;;;;5032583;28;20561;-72
2020/12/02 07:12:06;;;;;;;55.80;22.83;;;;;;;;;;5042225;28;20326;-72
2020/12/02 07:14:39;;;;;;;54.83;21.70;;;;;;;;;;5029813;28;20228;-72
2020/12/02 07:17:14;;;;;;;52.00;23.27;;;;;;;;;;5044899;28;20288;-72
2020/12/02 07:19:43;;;;;;;58.00;22.67;;;;;;;;;;5033027;28;20272;-72
2020/12/02 07:22:11;;;;;;;54.27;21.53;;;;;;;;;;5044969;28;20237;-72
2020/12/02 07:24:46;;;;;;;53.57;22.43;;;;;;;;;;5034363;28;20178;-72
2020/12/02 07:27:13;;;;;;;56.10;22.27;;;;;;;;;;5044782;28;20275;-72
2020/12/02 07:29:38;;;;;;;56.73;21.97;;;;;;;;;;5042222;28;21759;-71
2020/12/02 07:32:19;;;;;;;55.73;22.10;;;;;;;;;;5037274;28;20544;-72
2020/12/02 07:34:45;;;;;;;57.30;22.13;;;;;;;;;;5046973;28;20205;-71
2020/12/02 07:37:12;;;;;;;53.23;20.93;;;;;;;;;;5038254;28;20248;-72
2020/12/02 07:40:04;;;;;;;56.50;21.17;;;;;;;;;;5045641;28;20185;-71
2020/12/02 07:42:39;;;;;;;55.83;21.93;;;;;;;;;;5035413;28;20231;-71
2020/12/02 07:45:13;;;;;;;63.47;21.80;;;;;;;;;;5047491;28;20181;-71
2020/12/02 07:47:42;;;;;;;54.70;21.33;;;;;;;;;;5039474;28;20633;-71
2020/12/02 07:50:17;;;;;;;54.00;21.53;;;;;;;;;;5047422;28;20184;-72
2020/12/02 07:52:46;;;;;;;55.83;20.47;;;;;;;;;;5039746;28;20196;-71
2020/12/02 07:55:22;;;;;;;54.60;20.37;;;;;;;;;;5048368;28;20288;-71
2020/12/02 07:57:49;;;;;;;67.80;22.13;;;;;;;;;;5038207;28;20188;-72
2020/12/02 08:00:38;;;;;;;61.20;21.97;;;;;;;;;;5047557;28;20594;-72
2020/12/02 08:03:04;;;;;;;50.63;19.77;;;;;;;;;;5039838;28;20531;-72
2020/12/02 08:05:52;;;;;;;50.50;19.83;;;;;;;;;;5050223;28;20185;-72
2020/12/02 08:08:17;;;;;;;53.73;19.40;;;;;;;;;;5035829;28;20219;-72
2020/12/02 08:10:43;;;;;;;56.17;19.50;;;;;;;;;;5051375;28;20185;-72
2020/12/02 08:13:19;;;;;;;50.03;20.43;;;;;;;;;;5040111;28;20192;-72
2020/12/02 08:15:46;;;;;;;58.30;19.60;;;;;;;;;;5049103;28;20209;-72
2020/12/02 08:18:19;;;;;;;61.03;21.43;;;;;;;;;;5037973;28;20657;-72
2020/12/02 08:20:45;;;;;;;53.63;19.17;;;;;;;;;;5050146;28;20238;-72
2020/12/02 08:23:28;;;;;;;55.43;19.57;;;;;;;;;;5039112;28;20186;-72
2020/12/02 08:26:02;;;;;;;51.97;19.67;;;;;;;;;;5048282;28;20212;-72
2020/12/02 08:28:34;;;;;;;50.60;19.47;;;;;;;;;;5040855;28;20193;-72
2020/12/02 08:31:21;;;;;;;47.40;19.10;;;;;;;;;;5049663;28;20691;-72
2020/12/02 08:34:08;;;;;;;50.63;19.73;;;;;;;;;;5033669;28;20233;-72
2020/12/02 08:36:34;;;;;;;49.50;19.83;;;;;;;;;;5043599;28;20182;-72
2020/12/02 08:38:59;;;;;;;51.33;18.50;;;;;;;;;;5040553;28;20649;-72
2020/12/02 08:41:24;;;;;;;49.53;18.77;;;;;;;;;;5046642;28;20182;-72
2020/12/02 08:43:50;;;;;;;50.00;20.20;;;;;;;;;;5041418;28;20189;-72
2020/12/02 08:46:27;;;;;;;45.20;18.53;;;;;;;;;;5047657;28;20181;-72
2020/12/02 08:48:59;;;;;;;47.90;19.57;;;;;;;;;;5042605;28;20415;-72
2020/12/02 08:51:25;;;;;;;47.40;20.00;;;;;;;;;;5050020;28;20177;-71
2020/12/02 08:53:52;;;;;;;50.07;18.97;;;;;;;;;;5052071;28;21472;-72
2020/12/02 08:56:33;;;;;;;45.43;18.87;;;;;;;;;;5045194;28;20207;-72
2020/12/02 08:59:00;;;;;;;45.93;19.07;;;;;;;;;;5052232;28;20189;-72
2020/12/02 09:01:25;;;;;;;51.90;19.60;;;;;;;;;;5042035;28;20641;-72
2020/12/02 09:03:50;;;;;;;44.67;18.90;;;;;;;;;;5054471;28;20182;-72
2020/12/02 09:06:18;;;;;;;43.03;18.30;;;;;;;;;;5040954;28;20227;-70
2020/12/02 09:08:44;;;;;;;46.40;18.87;;;;;;;;;;5053645;28;20288;-72
2020/12/02 09:11:11;;;;;;;46.80;19.03;;;;;;;;;;5042270;28;20181;-72
2020/12/02 09:13:37;;;;;;;45.53;18.40;;;;;;;;;;5052497;28;20265;-72
2020/12/02 09:16:02;;;;;;;44.47;18.30;;;;;;;;;;5042004;28;20284;-72
2020/12/02 09:18:28;;;;;;;44.50;18.53;;;;;;;;;;5054075;28;20552;-72
2020/12/02 09:20:53;;;;;;;41.53;19.20;;;;;;;;;;5041262;28;20220;-72
2020/12/02 09:23:18;;;;;;;43.27;18.43;;;;;;;;;;5054482;28;20281;-73
2020/12/02 09:25:43;;;;;;;42.20;19.20;;;;;;;;;;5041259;28;20244;-72
2020/12/02 09:28:09;;;;;;;48.13;18.90;;;;;;;;;;5050654;28;20541;-71
2020/12/02 09:30:35;;;;;;;46.97;18.77;;;;;;;;;;5049279;28;20181;-71
2020/12/02 09:33:01;;;;;;;46.53;18.73;;;;;;;;;;5044703;28;20266;-71
2020/12/02 09:35:27;;;;;;;44.07;18.80;;;;;;;;;;5050094;28;20212;-71
2020/12/02 09:37:53;;;;;;;41.37;18.93;;;;;;;;;;5042237;28;24111;-72
2020/12/02 09:40:18;;;;;;;45.80;18.63;;;;;;;;;;5049168;28;20201;-72
2020/12/02 09:43:16;;;;;;;44.03;19.10;;;;;;;;;;5039606;28;20189;-71
2020/12/02 09:46:06;;;;;;;44.40;18.90;;;;;;;;;;5040615;28;20544;-72
2020/12/02 09:48:32;;;;;;;45.47;18.67;;;;;;;;;;5040796;28;20248;-71
2020/12/02 09:50:57;;;;;;;41.87;19.27;;;;;;;;;;5053675;28;20214;-71
2020/12/02 09:53:28;;;;;;;38.47;19.13;;;;;;;;;;5042375;28;20184;-71
2020/12/02 09:55:54;;;;;;;42.23;18.93;;;;;;;;;;5050938;28;20739;-71
2020/12/02 09:58:20;;;;;;;46.80;19.57;;;;;;;;;;5038349;28;20310;-71
2020/12/02 10:00:45;;;;;;;45.53;19.63;;;;;;;;;;5050961;28;20184;-72
2020/12/02 10:04:00;;;;;;;47.13;19.57;;;;;;;;;;5041310;28;20181;-71
2020/12/02 10:07:00;;;;;;;42.83;19.37;;;;;;;;;;5028957;28;20185;-71
2020/12/02 10:09:49;;;;;;;45.63;19.17;;;;;;;;;;5018860;28;20200;-71
2020/12/02 10:13:00;;;;;;;46.33;19.43;;;;;;;;;;5051507;28;20205;-72
2020/12/02 10:15:43;;;;;;;45.00;19.70;;;;;;;;;;5008950;28;20213;-71
2020/12/02 10:18:23;;;;;;;44.40;20.03;;;;;;;;;;5045681;28;20201;-71
2020/12/02 10:21:10;;;;;;;44.17;19.40;;;;;;;;;;5046794;28;20188;-71
2020/12/02 10:23:48;;;;;;;42.93;19.73;;;;;;;;;;5039389;28;20185;-71
2020/12/02 10:26:51;;;;;;;44.23;19.67;;;;;;;;;;5050145;28;20554;-71
2020/12/02 10:29:44;;;;;;;42.23;19.87;;;;;;;;;;5041733;28;20189;-71
2020/12/02 10:32:40;;;;;;;46.33;20.70;;;;;;;;;;5048017;28;20186;-72
2020/12/02 10:35:07;;;;;;;42.90;19.50;;;;;;;;;;5039957;28;20212;-71
2020/12/02 10:37:36;;;;;;;44.40;20.13;;;;;;;;;;5044944;28;20185;-71
2020/12/02 10:40:05;;;;;;;44.70;19.50;;;;;;;;;;5048339;28;20181;-71
2020/12/02 10:42:41;;;;;;;47.97;21.23;;;;;;;;;;5050625;28;20178;-71
2020/12/02 10:45:15;;;;;;;42.77;19.83;;;;;;;;;;5036873;28;20263;-72
2020/12/02 10:48:15;;;;;;;45.57;19.70;;;;;;;;;;5047715;28;20180;-72
2020/12/02 10:50:41;;;;;;;47.20;20.37;;;;;;;;;;5035522;28;20247;-71
2020/12/02 10:53:11;;;;;;;50.80;21.20;;;;;;;;;;5045239;28;20649;-71
2020/12/02 10:55:37;;;;;;;49.90;20.63;;;;;;;;;;5039064;28;20194;-71
2020/12/02 10:58:19;;;;;;;44.40;19.30;;;;;;;;;;5046220;28;20185;-71
2020/12/02 11:00:51;;;;;;;44.57;20.07;;;;;;;;;;5040352;28;20552;-72
2020/12/02 11:03:24;;;;;;;50.87;22.57;;;;;;;;;;5041083;28;20184;-71
2020/12/02 11:06:22;;;;;;;47.67;20.30;;;;;;;;;;5039174;28;20280;-71
2020/12/02 11:09:12;;;;;;;59.23;21.57;;;;;;;;;;5046263;28;20227;-71
2020/12/02 11:12:14;;;;;;;51.10;21.27;;;;;;;;;;5039680;28;20559;-71
2020/12/02 11:14:58;;;;;;;52.80;21.87;;;;;;;;;;5047077;28;20209;-71
2020/12/02 11:17:54;;;;;;;49.57;20.97;;;;;;;;;;5039065;28;20204;-71
2020/12/02 11:20:30;;;;;;;52.90;22.23;;;;;;;;;;5048400;28;20188;-71
2020/12/02 11:23:10;;;;;;;52.80;22.03;;;;;;;;;;5041266;28;20584;-71
2020/12/02 11:25:51;;;;;;;55.70;21.60;;;;;;;;;;5048205;28;20188;-71
2020/12/02 11:28:16;;;;;;;53.40;21.63;;;;;;;;;;5041509;28;20610;-72
2020/12/02 11:30:44;;;;;;;50.63;22.20;;;;;;;;;;5047213;28;20189;-71
2020/12/02 11:33:52;;;;;;;48.77;21.80;;;;;;;;;;5038437;28;20586;-72
2020/12/02 11:36:30;;;;;;;43.73;20.57;;;;;;;;;;5045351;28;20246;-72
2020/12/02 11:39:07;;;;;;;41.53;20.37;;;;;;;;;;5035569;28;20216;-72
2020/12/02 11:41:47;;;;;;;40.60;20.23;;;;;;;;;;5045133;28;20264;-71
2020/12/02 11:44:33;;;;;;;39.40;20.37;;;;;;;;;;5037561;28;20307;-72
2020/12/02 11:47:11;;;;;;;42.67;19.53;;;;;;;;;;5045692;28;20192;-71
2020/12/02 11:49:40;;;;;;;41.63;20.37;;;;;;;;;;5037785;28;20293;-72
2020/12/02 11:52:43;;;;;;;40.63;21.00;;;;;;;;;;5048475;28;20197;-71
2020/12/02 11:55:14;;;;;;;38.07;20.70;;;;;;;;;;5023757;28;20213;-72
2020/12/02 11:57:50;;;;;;;40.97;20.73;;;;;;;;;;5048815;28;20598;-71
2020/12/02 12:00:15;;;;;;;40.57;20.50;;;;;;;;;;5038585;28;20717;-71
2020/12/02 12:03:09;;;;;;;38.50;20.13;;;;;;;;;;5048302;28;20260;-71
2020/12/02 12:05:46;;;;;;;38.53;20.33;;;;;;;;;;5010622;28;20288;-71
2020/12/02 12:08:39;;;;;;;41.50;21.00;;;;;;;;;;5046710;28;20223;-70
2020/12/02 12:11:25;;;;;;;41.90;20.83;;;;;;;;;;5035133;28;20194;-71
2020/12/02 12:14:01;;;;;;;42.17;21.13;;;;;;;;;;5047687;28;20540;-72
2020/12/02 12:17:09;;;;;;;37.67;20.00;;;;;;;;;;5042949;28;20575;-71
2020/12/02 12:19:54;;;;;;;41.73;21.00;;;;;;;;;;5024536;28;20193;-71
2020/12/02 12:22:32;;;;;;;43.93;22.40;;;;;;;;;;5061967;28;20864;-72
2020/12/02 12:25:04;;;;;;;47.10;24.13;;;;;;;;;;5041877;28;20185;-72
2020/12/02 12:27:29;;;;;;;45.50;22.97;;;;;;;;;;5049128;28;20189;-71
2020/12/02 12:29:54;;;;;;;49.83;25.33;;;;;;;;;;5037115;28;20190;-71
2020/12/02 12:32:45;;;;;;;47.33;24.90;;;;;;;;;;5046569;28;20218;-71
2020/12/02 12:35:21;;;;;;;44.47;22.13;;;;;;;;;;5042053;28;20209;-71
2020/12/02 12:37:57;;;;;;;44.80;22.40;;;;;;;;;;5049855;28;20196;-71
2020/12/02 12:40:52;;;;;;;45.20;22.97;;;;;;;;;;5043489;28;20579;-71
2020/12/02 12:43:22;;;;;;;39.30;20.20;;;;;;;;;;5048596;28;20272;-72
2020/12/02 12:45:53;;;;;;;43.90;23.23;;;;;;;;;;5039886;28;20189;-72
2020/12/02 12:48:22;;;;;;;39.93;21.57;;;;;;;;;;5049133;28;20266;-72
2020/12/02 12:50:49;;;;;;;38.17;20.10;;;;;;;;;;5049440;28;20188;-71
2020/12/02 12:53:17;;;;;;;41.33;20.90;;;;;;;;;;5038794;28;20193;-71
2020/12/02 12:55:42;;;;;;;38.70;19.37;;;;;;;;;;5050749;28;20212;-71
2020/12/02 12:58:12;;;;;;;39.23;21.27;;;;;;;;;;5035686;28;20565;-71
2020/12/02 13:00:47;;;;;;;40.23;20.90;;;;;;;;;;5048042;28;20672;-71
2020/12/02 13:03:15;;;;;;;40.10;21.73;;;;;;;;;;5038793;28;20208;-71
2020/12/02 13:05:41;;;;;;;40.27;21.60;;;;;;;;;;5048834;28;20636;-72
2020/12/02 13:08:17;;;;;;;43.37;22.00;;;;;;;;;;5035801;28;20591;-72
2020/12/02 13:11:04;;;;;;;45.57;22.10;;;;;;;;;;5049306;28;20189;-72
2020/12/02 13:13:53;;;;;;;36.60;19.60;;;;;;;;;;5033911;28;20196;-71
2020/12/02 13:16:35;;;;;;;37.90;20.20;;;;;;;;;;5047938;28;20241;-71
2020/12/02 13:19:15;;;;;;;39.00;21.17;;;;;;;;;;5040179;28;20273;-71
2020/12/02 13:21:50;;;;;;;39.90;20.67;;;;;;;;;;5048597;28;20188;-71
2020/12/02 13:24:17;;;;;;;36.60;19.90;;;;;;;;;;5041514;28;20185;-71
2020/12/02 13:26:44;;;;;;;36.80;20.60;;;;;;;;;;5049673;28;20257;-72
2020/12/02 13:29:32;;;;;;;34.57;19.47;;;;;;;;;;5039527;28;20276;-72
2020/12/02 13:32:26;;;;;;;35.50;18.43;;;;;;;;;;5048000;28;20273;-72
2020/12/02 13:34:54;;;;;;;34.80;18.70;;;;;;;;;;5039688;28;20221;-71
2020/12/02 13:37:21;;;;;;;35.77;18.80;;;;;;;;;;5047936;28;20260;-71
2020/12/02 13:39:46;;;;;;;37.70;19.60;;;;;;;;;;5041021;28;20528;-72
2020/12/02 13:42:12;;;;;;;39.80;19.90;;;;;;;;;;5048121;28;20193;-72
2020/12/02 13:45:09;;;;;;;37.03;19.93;;;;;;;;;;5040147;28;20268;-71
2020/12/02 13:47:37;;;;;;;38.93;20.10;;;;;;;;;;5048753;28;20694;-71
2020/12/02 13:50:13;;;;;;;34.67;19.00;;;;;;;;;;5039365;28;20660;-72
2020/12/02 13:53:07;;;;;;;36.07;19.17;;;;;;;;;;5047273;28;20299;-72
2020/12/02 13:55:48;;;;;;;38.13;18.83;;;;;;;;;;5040799;28;20625;-71
2020/12/02 13:58:32;;;;;;;33.10;18.30;;;;;;;;;;5050056;28;20193;-72
2020/12/02 14:01:26;;;;;;;36.50;19.83;;;;;;;;;;5037859;28;20694;-71
2020/12/02 14:04:18;;;;;;;34.70;19.17;;;;;;;;;;5039481;28;20211;-72
2020/12/02 14:07:00;;;;;;;36.77;18.93;;;;;;;;;;5040735;28;20568;-72
2020/12/02 14:09:40;;;;;;;38.63;19.60;;;;;;;;;;5050765;28;20192;-72
2020/12/02 14:12:09;;;;;;;42.70;21.60;;;;;;;;;;5032526;28;20239;-71
2020/12/02 14:14:38;;;;;;;39.70;20.63;;;;;;;;;;5047883;28;20174;-71
2020/12/02 14:17:04;;;;;;;36.67;20.83;;;;;;;;;;5040120;28;20272;-71
2020/12/02 14:19:30;;;;;;;41.37;20.43;;;;;;;;;;5048956;28;20268;-72
2020/12/02 14:22:09;;;;;;;39.07;21.33;;;;;;;;;;5041895;28;20524;-72
2020/12/02 14:24:34;;;;;;;37.80;19.73;;;;;;;;;;5047479;28;20291;-72
2020/12/02 14:27:00;;;;;;;35.93;20.57;;;;;;;;;;5041418;28;20180;-72
2020/12/02 14:29:25;;;;;;;37.77;20.53;;;;;;;;;;5047243;28;20182;-71
2020/12/02 14:31:51;;;;;;;39.37;21.20;;;;;;;;;;5039414;28;20223;-73
2020/12/02 14:34:16;;;;;;;39.47;21.43;;;;;;;;;;5047443;28;20658;-71
2020/12/02 14:36:41;;;;;;;40.97;22.10;;;;;;;;;;5040561;28;20212;-73
2020/12/02 14:39:07;;;;;;;39.73;22.03;;;;;;;;;;5038492;28;20193;-70
2020/12/02 14:41:32;;;;;;;42.17;21.43;;;;;;;;;;5047042;28;20199;-70
2020/12/02 14:43:57;;;;;;;39.60;20.93;;;;;;;;;;5041157;28;20273;-70
2020/12/02 14:46:23;;;;;;;39.97;21.33;;;;;;;;;;5047392;28;20185;-70
2020/12/02 14:48:49;;;;;;;40.00;20.87;;;;;;;;;;5040283;28;20231;-70